createdAt,value
2023-12-18T00:00:58.314Z,37.87
2023-12-18T00:01:58.270Z,37.88
2023-12-18T00:02:58.329Z,37.91
2023-12-18T00:03:58.403Z,37.88
2023-12-18T00:04:58.322Z,37.87
2023-12-18T00:05:58.317Z,37.92
2023-12-18T00:06:58.328Z,37.86
2023-12-18T00:07:58.347Z,37.92
2023-12-18T00:08:58.347Z,37.88
2023-12-18T00:09:58.367Z,37.91
2023-12-18T00:10:58.368Z,37.85
2023-12-18T00:11:58.386Z,37.90
2023-12-18T00:12:58.395Z,37.88
2023-12-18T00:13:58.415Z,37.87
2023-12-18T00:14:58.428Z,37.89
2023-12-18T00:15:58.428Z,37.88
2023-12-18T00:16:58.452Z,37.87
2023-12-18T00:17:58.515Z,37.87
2023-12-18T00:18:58.575Z,37.85
2023-12-18T00:19:58.476Z,37.91
2023-12-18T00:20:58.519Z,37.89
2023-12-18T00:21:58.504Z,37.84
2023-12-18T00:22:58.531Z,37.86
2023-12-18T00:23:58.539Z,37.87
2023-12-18T00:24:58.554Z,37.81
2023-12-18T00:25:58.566Z,37.82
2023-12-18T00:26:58.581Z,37.85
2023-12-18T00:27:58.641Z,37.84
2023-12-18T00:28:58.617Z,37.86
2023-12-18T00:29:58.603Z,37.82
2023-12-18T00:30:58.754Z,37.86
2023-12-18T00:31:58.629Z,37.84
2023-12-18T00:32:58.666Z,37.84
2023-12-18T00:33:58.784Z,37.85
2023-12-18T00:34:58.694Z,37.85
2023-12-18T00:35:58.663Z,37.86
2023-12-18T00:36:58.669Z,37.80
2023-12-18T00:37:58.694Z,37.82
2023-12-18T00:38:58.719Z,37.82
2023-12-18T00:39:58.712Z,37.84
2023-12-18T00:40:58.731Z,37.84
2023-12-18T00:41:58.738Z,37.84
2023-12-18T00:42:58.750Z,37.82
2023-12-18T00:43:58.761Z,37.83
2023-12-18T00:44:58.786Z,37.85
2023-12-18T00:45:58.810Z,37.80
2023-12-18T00:46:58.780Z,37.85
2023-12-18T00:47:58.852Z,37.82
2023-12-18T00:48:58.897Z,37.84
2023-12-18T00:49:58.911Z,37.85
2023-12-18T00:50:58.812Z,37.86
2023-12-18T00:51:58.825Z,37.85
2023-12-18T00:52:58.825Z,37.84
2023-12-18T00:53:58.838Z,37.87
2023-12-18T00:54:58.836Z,37.82
2023-12-18T00:55:58.892Z,37.83
2023-12-18T00:56:58.859Z,37.89
2023-12-18T00:57:58.927Z,37.87
2023-12-18T00:58:58.892Z,37.87
2023-12-18T00:59:58.893Z,37.86
2023-12-18T01:00:58.962Z,37.84
2023-12-18T01:01:58.961Z,37.85
2023-12-18T01:02:58.915Z,37.86
2023-12-18T01:03:59.004Z,37.86
2023-12-18T01:04:58.971Z,37.86
2023-12-18T01:05:58.955Z,37.86
2023-12-18T01:06:58.968Z,37.86
2023-12-18T01:07:58.988Z,37.87
2023-12-18T01:08:58.988Z,37.84
2023-12-18T01:09:59.001Z,37.87
2023-12-18T01:10:59.017Z,37.87
2023-12-18T01:11:59.009Z,37.81
2023-12-18T01:12:59.029Z,37.81
2023-12-18T01:13:59.090Z,37.84
2023-12-18T01:14:59.049Z,37.84
2023-12-18T01:15:59.037Z,37.82
2023-12-18T01:16:59.074Z,37.87
2023-12-18T01:17:59.140Z,37.84
2023-12-18T01:18:59.269Z,37.82
2023-12-18T01:19:59.078Z,37.85
2023-12-18T01:20:59.089Z,37.81
2023-12-18T01:21:59.137Z,37.85
2023-12-18T01:23:04.359Z,37.85
2023-12-18T01:24:00.187Z,37.81
2023-12-18T01:24:59.126Z,37.83
2023-12-18T01:25:59.108Z,37.79
2023-12-18T01:26:59.112Z,37.81
2023-12-18T01:27:59.121Z,37.77
2023-12-18T01:28:59.113Z,37.83
2023-12-18T01:29:59.133Z,37.81
2023-12-18T01:30:59.229Z,37.83
2023-12-18T01:31:59.124Z,37.84
2023-12-18T01:32:59.206Z,37.83
2023-12-18T01:33:59.219Z,37.83
2023-12-18T01:34:59.120Z,37.79
2023-12-18T01:35:59.136Z,37.81
2023-12-18T01:36:59.136Z,37.83
2023-12-18T01:37:59.120Z,37.83
2023-12-18T01:38:59.142Z,37.85
2023-12-18T01:39:59.138Z,37.86
2023-12-18T01:40:59.127Z,37.83
2023-12-18T01:41:59.137Z,37.82
2023-12-18T01:42:59.129Z,37.82
2023-12-18T01:43:59.160Z,37.82
2023-12-18T01:44:59.133Z,37.85
2023-12-18T01:45:59.148Z,37.85
2023-12-18T01:46:59.141Z,37.84
2023-12-18T01:47:59.226Z,37.83
2023-12-18T01:48:59.216Z,37.85
2023-12-18T01:49:59.152Z,37.82
2023-12-18T01:50:59.139Z,37.84
2023-12-18T01:51:59.152Z,37.83
2023-12-18T01:52:59.167Z,37.82
2023-12-18T01:53:59.165Z,37.82
2023-12-18T01:54:59.161Z,37.82
2023-12-18T01:55:59.149Z,37.82
2023-12-18T01:56:59.152Z,37.81
2023-12-18T01:57:59.154Z,37.83
2023-12-18T01:58:59.182Z,37.79
2023-12-18T01:59:59.159Z,37.85
2023-12-18T02:00:59.351Z,37.84
2023-12-18T02:01:59.175Z,37.81
2023-12-18T02:02:59.248Z,37.81
2023-12-18T02:03:59.285Z,37.81
2023-12-18T02:04:59.176Z,37.77
2023-12-18T02:05:59.157Z,37.82
2023-12-18T02:06:59.162Z,37.84
2023-12-18T02:07:59.180Z,37.79
2023-12-18T02:08:59.195Z,37.81
2023-12-18T02:09:59.165Z,37.81
2023-12-18T02:10:59.160Z,37.82
2023-12-18T02:11:59.165Z,37.83
2023-12-18T02:12:59.176Z,37.79
2023-12-18T02:13:59.187Z,37.84
2023-12-18T02:14:59.170Z,37.83
2023-12-18T02:15:59.160Z,37.83
2023-12-18T02:16:59.168Z,37.83
2023-12-18T02:17:59.217Z,37.80
2023-12-18T02:18:59.229Z,37.81
2023-12-18T02:19:59.179Z,37.81
2023-12-18T02:20:59.179Z,37.77
2023-12-18T02:21:59.233Z,37.80
2023-12-18T02:22:59.178Z,37.89
2023-12-18T02:23:59.189Z,37.85
2023-12-18T02:24:59.198Z,37.87
2023-12-18T02:25:59.211Z,37.82
2023-12-18T02:26:59.206Z,37.79
2023-12-18T02:27:59.188Z,37.85
2023-12-18T02:28:59.181Z,37.84
2023-12-18T02:29:59.203Z,37.81
2023-12-18T02:30:59.343Z,37.83
2023-12-18T02:31:59.216Z,37.79
2023-12-18T02:32:59.342Z,37.83
2023-12-18T02:33:59.397Z,37.85
2023-12-18T02:34:59.415Z,37.85
2023-12-18T02:35:59.262Z,37.83
2023-12-18T02:36:59.273Z,37.81
2023-12-18T02:37:59.288Z,37.83
2023-12-18T02:38:59.299Z,37.79
2023-12-18T02:39:59.302Z,37.87
2023-12-18T02:40:59.312Z,37.86
2023-12-18T02:41:59.381Z,37.84
2023-12-18T02:42:59.397Z,37.85
2023-12-18T02:43:59.349Z,37.85
2023-12-18T02:44:59.337Z,37.85
2023-12-18T02:45:59.366Z,37.85
2023-12-18T02:46:59.372Z,37.80
2023-12-18T02:47:59.423Z,37.85
2023-12-18T02:48:59.485Z,37.81
2023-12-18T02:49:59.401Z,37.84
2023-12-18T02:50:59.396Z,37.84
2023-12-18T02:51:59.400Z,37.80
2023-12-18T02:52:59.420Z,37.85
2023-12-18T02:53:59.442Z,37.84
2023-12-18T02:54:59.448Z,37.80
2023-12-18T02:55:59.460Z,37.85
2023-12-18T02:56:59.464Z,37.83
2023-12-18T02:57:59.481Z,37.84
2023-12-18T02:58:59.498Z,37.84
2023-12-18T02:59:59.495Z,37.83
2023-12-18T03:00:59.529Z,37.85
2023-12-18T03:01:59.510Z,37.83
2023-12-18T03:02:59.553Z,37.85
2023-12-18T03:03:59.645Z,37.86
2023-12-18T03:04:59.604Z,37.82
2023-12-18T03:05:59.564Z,37.82
2023-12-18T03:06:59.579Z,37.82
2023-12-18T03:07:59.578Z,37.83
2023-12-18T03:08:59.581Z,37.85
2023-12-18T03:09:59.602Z,37.82
2023-12-18T03:10:59.596Z,37.86
2023-12-18T03:11:59.629Z,37.83
2023-12-18T03:12:59.619Z,37.84
2023-12-18T03:13:59.630Z,37.84
2023-12-18T03:14:59.643Z,37.86
2023-12-18T03:15:59.685Z,37.85
2023-12-18T03:16:59.663Z,37.85
2023-12-18T03:17:59.742Z,37.87
2023-12-18T03:18:59.781Z,37.82
2023-12-18T03:19:59.683Z,37.84
2023-12-18T03:20:59.705Z,37.86
2023-12-18T03:21:59.699Z,37.85
2023-12-18T03:22:59.708Z,37.84
2023-12-18T03:23:59.731Z,37.86
2023-12-18T03:24:59.726Z,37.81
2023-12-18T03:25:59.741Z,37.86
2023-12-18T03:26:59.755Z,37.85
2023-12-18T03:27:59.753Z,37.82
2023-12-18T03:28:59.805Z,37.85
2023-12-18T03:29:59.788Z,37.80
2023-12-18T03:30:59.887Z,37.79
2023-12-18T03:31:59.792Z,37.83
2023-12-18T03:32:59.847Z,37.80
2023-12-18T03:33:59.907Z,37.83
2023-12-18T03:34:59.811Z,37.81
2023-12-18T03:35:59.827Z,37.83
2023-12-18T03:36:59.838Z,37.83
2023-12-18T03:37:59.866Z,37.80
2023-12-18T03:38:59.869Z,37.85
2023-12-18T03:39:59.867Z,37.82
2023-12-18T03:40:59.894Z,37.81
2023-12-18T03:41:59.883Z,37.81
2023-12-18T03:42:59.885Z,37.85
2023-12-18T03:43:59.904Z,37.85
2023-12-18T03:44:59.918Z,37.84
2023-12-18T03:45:59.921Z,37.85
2023-12-18T03:46:59.927Z,37.84
2023-12-18T03:47:59.976Z,37.84
2023-12-18T03:49:00.052Z,37.77
2023-12-18T03:50:00.034Z,37.81
2023-12-18T03:50:59.960Z,37.81
2023-12-18T03:51:59.948Z,37.81
2023-12-18T03:52:59.958Z,37.81
2023-12-18T03:53:59.958Z,37.81
2023-12-18T03:54:59.961Z,37.81
2023-12-18T03:55:59.968Z,37.81
2023-12-18T03:56:59.972Z,37.81
2023-12-18T03:57:59.959Z,37.81
2023-12-18T03:58:59.978Z,37.81
2023-12-18T03:59:59.957Z,37.81
2023-12-18T04:01:00.117Z,37.81
2023-12-18T04:01:59.987Z,37.81
2023-12-18T04:03:00.011Z,37.81
2023-12-18T04:04:00.180Z,37.81
2023-12-18T04:05:00.106Z,37.81
2023-12-18T04:06:00.086Z,37.81
2023-12-18T04:07:00.175Z,37.81
2023-12-18T04:08:00.147Z,37.81
2023-12-18T04:09:00.172Z,37.81
2023-12-18T04:10:00.253Z,37.81
2023-12-18T04:11:00.205Z,37.81
2023-12-18T04:12:00.273Z,37.81
2023-12-18T04:13:00.271Z,37.81
2023-12-18T04:14:00.285Z,37.81
2023-12-18T04:15:00.294Z,37.81
2023-12-18T04:16:00.902Z,37.81
2023-12-18T04:17:00.333Z,37.81
2023-12-18T04:18:00.424Z,37.81
2023-12-18T04:19:00.499Z,37.81
2023-12-18T04:20:00.368Z,37.81
2023-12-18T04:21:00.396Z,37.81
2023-12-18T04:22:00.423Z,37.81
2023-12-18T04:23:00.437Z,37.81
2023-12-18T04:24:00.485Z,37.81
2023-12-18T04:25:00.488Z,37.81
2023-12-18T04:26:00.501Z,37.81
2023-12-18T04:27:00.514Z,37.81
2023-12-18T04:28:00.537Z,37.81
2023-12-18T04:29:00.553Z,37.81
2023-12-18T04:30:00.606Z,37.81
2023-12-18T04:31:00.662Z,37.81
2023-12-18T04:32:00.620Z,37.81
2023-12-18T04:33:00.723Z,37.81
2023-12-18T04:34:00.753Z,37.81
2023-12-18T04:35:00.680Z,37.81
2023-12-18T04:36:00.720Z,37.81
2023-12-18T04:37:02.720Z,37.81
2023-12-18T04:38:00.813Z,37.81
2023-12-18T04:39:00.786Z,37.81
2023-12-18T04:40:00.804Z,37.81
2023-12-18T04:41:00.814Z,37.81
2023-12-18T04:42:00.838Z,37.81
2023-12-18T04:43:00.859Z,37.81
2023-12-18T04:44:00.879Z,37.81
2023-12-18T04:45:00.903Z,37.81
2023-12-18T04:46:08.306Z,37.35
2023-12-18T04:47:08.198Z,37.42
2023-12-18T04:48:08.291Z,37.46
2023-12-18T04:49:08.405Z,37.44
2023-12-18T04:50:08.314Z,37.52
2023-12-18T04:51:08.219Z,37.55
2023-12-18T04:52:08.238Z,37.56
2023-12-18T04:53:08.208Z,37.62
2023-12-18T04:54:08.228Z,37.59
2023-12-18T04:55:08.236Z,37.61
2023-12-18T04:56:08.204Z,37.66
2023-12-18T04:57:08.304Z,37.62
2023-12-18T04:58:08.210Z,37.68
2023-12-18T04:59:08.213Z,37.66
2023-12-18T05:00:08.275Z,37.68
2023-12-18T05:01:08.401Z,37.67
2023-12-18T05:02:08.214Z,37.69
2023-12-18T05:03:08.310Z,37.64
2023-12-18T05:04:08.332Z,37.70
2023-12-18T05:05:08.266Z,37.67
2023-12-18T05:06:08.230Z,37.67
2023-12-18T05:07:08.212Z,37.75
2023-12-18T05:08:08.222Z,37.67
2023-12-18T05:09:08.255Z,37.68
2023-12-18T05:10:08.234Z,37.72
2023-12-18T05:11:08.239Z,37.70
2023-12-18T05:12:08.289Z,37.67
2023-12-18T05:13:08.222Z,37.70
2023-12-18T05:14:08.238Z,37.70
2023-12-18T05:15:10.820Z,37.73
2023-12-18T05:16:08.226Z,37.74
2023-12-18T05:17:08.301Z,37.72
2023-12-18T05:18:08.422Z,37.74
2023-12-18T05:19:08.319Z,37.72
2023-12-18T05:20:08.247Z,37.71
2023-12-18T05:21:08.253Z,37.75
2023-12-18T05:22:08.226Z,37.71
2023-12-18T05:23:08.236Z,37.73
2023-12-18T05:24:08.264Z,37.69
2023-12-18T05:25:08.234Z,37.73
2023-12-18T05:26:08.221Z,37.72
2023-12-18T05:27:08.257Z,37.73
2023-12-18T05:28:08.234Z,37.79
2023-12-18T05:29:08.246Z,37.74
2023-12-18T05:30:08.323Z,37.73
2023-12-18T05:31:08.281Z,37.74
2023-12-18T05:32:08.251Z,37.74
2023-12-18T05:33:08.380Z,37.72
2023-12-18T05:34:08.367Z,37.74
2023-12-18T05:35:08.252Z,37.73
2023-12-18T05:36:08.263Z,37.74
2023-12-18T05:37:08.255Z,37.74
2023-12-18T05:38:08.254Z,37.76
2023-12-18T05:39:08.354Z,37.75
2023-12-18T05:40:08.254Z,37.69
2023-12-18T05:41:08.255Z,37.71
2023-12-18T05:42:09.696Z,37.72
2023-12-18T05:43:08.272Z,37.73
2023-12-18T05:44:08.256Z,37.72
2023-12-18T05:45:08.435Z,37.75
2023-12-18T05:46:08.269Z,37.70
2023-12-18T05:47:08.275Z,37.74
2023-12-18T05:48:08.400Z,37.74
2023-12-18T05:49:08.405Z,37.68
2023-12-18T05:50:08.352Z,37.68
2023-12-18T05:51:08.291Z,37.70
2023-12-18T05:52:08.263Z,37.69
2023-12-18T05:53:08.280Z,37.70
2023-12-18T05:54:08.292Z,37.70
2023-12-18T05:55:09.996Z,37.70
2023-12-18T05:56:08.275Z,37.68
2023-12-18T05:57:08.310Z,37.69
2023-12-18T05:58:08.263Z,37.67
2023-12-18T05:59:08.275Z,37.69
2023-12-18T06:00:08.351Z,37.67
2023-12-18T06:01:08.406Z,37.72
2023-12-18T06:02:08.277Z,37.72
2023-12-18T06:03:08.396Z,37.70
2023-12-18T06:04:08.308Z,37.70
2023-12-18T06:05:08.302Z,37.69
2023-12-18T06:06:08.595Z,37.68
2023-12-18T06:07:08.372Z,37.72
2023-12-18T06:08:08.279Z,37.68
2023-12-18T06:09:08.328Z,37.72
2023-12-18T06:10:08.274Z,37.69
2023-12-18T06:11:08.322Z,37.65
2023-12-18T06:12:08.454Z,37.71
2023-12-18T06:13:08.287Z,37.70
2023-12-18T06:14:08.318Z,37.65
2023-12-18T06:15:08.415Z,37.69
2023-12-18T06:16:08.317Z,37.68
2023-12-18T06:17:08.300Z,37.67
2023-12-18T06:18:08.551Z,37.64
2023-12-18T06:19:08.380Z,37.70
2023-12-18T06:20:08.321Z,37.66
2023-12-18T06:21:08.346Z,37.70
2023-12-18T06:22:08.308Z,37.61
2023-12-18T06:23:08.315Z,37.66
2023-12-18T06:24:08.394Z,37.65
2023-12-18T06:25:08.342Z,37.65
2023-12-18T06:26:08.340Z,37.62
2023-12-18T06:27:08.373Z,37.62
2023-12-18T06:28:08.369Z,37.64
2023-12-18T06:29:08.317Z,37.62
2023-12-18T06:30:08.397Z,37.66
2023-12-18T06:31:08.458Z,37.63
2023-12-18T06:32:10.342Z,37.59
2023-12-18T06:33:08.687Z,36.46
2023-12-18T06:34:08.434Z,35.72
2023-12-18T06:35:08.556Z,37.19
2023-12-18T06:36:08.341Z,37.27
2023-12-18T06:37:08.327Z,36.77
2023-12-18T06:38:08.311Z,36.52
2023-12-18T06:39:09.415Z,36.78
2023-12-18T06:40:08.873Z,36.31
2023-12-18T06:41:08.485Z,35.84
2023-12-18T06:42:08.607Z,36.28
2023-12-18T06:43:08.591Z,36.75
2023-12-18T06:44:08.639Z,36.68
2023-12-18T06:45:08.891Z,37.21
2023-12-18T06:46:08.825Z,37.24
2023-12-18T06:47:08.806Z,36.68
2023-12-18T06:48:08.927Z,36.53
2023-12-18T06:49:09.021Z,36.38
2023-12-18T06:50:09.360Z,36.43
2023-12-18T06:51:08.978Z,36.27
2023-12-18T06:52:08.993Z,36.34
2023-12-18T06:53:09.032Z,36.27
2023-12-18T06:54:09.088Z,36.26
2023-12-18T06:55:09.101Z,36.32
2023-12-18T06:56:09.172Z,36.35
2023-12-18T06:57:09.228Z,36.36
2023-12-18T06:58:09.283Z,36.43
2023-12-18T06:59:09.320Z,36.40
2023-12-18T07:00:09.957Z,36.38
2023-12-18T07:01:09.617Z,36.45
2023-12-18T07:02:09.515Z,36.49
2023-12-18T07:03:09.672Z,36.52
2023-12-18T07:04:09.771Z,36.55
2023-12-18T07:05:09.943Z,36.58
2023-12-18T07:06:09.832Z,36.61
2023-12-18T07:07:09.846Z,36.63
2023-12-18T07:08:09.912Z,36.68
2023-12-18T07:09:10.024Z,36.65
2023-12-18T07:10:10.480Z,36.70
2023-12-18T07:11:10.110Z,36.74
2023-12-18T07:12:10.235Z,36.79
2023-12-18T07:13:10.255Z,36.78
2023-12-18T07:14:10.298Z,36.80
2023-12-18T07:15:10.383Z,36.81
2023-12-18T07:16:10.503Z,36.82
2023-12-18T07:17:10.422Z,36.84
2023-12-18T07:18:10.619Z,36.86
2023-12-18T07:19:10.655Z,36.85
2023-12-18T07:20:10.867Z,36.92
2023-12-18T07:21:10.674Z,36.88
2023-12-18T07:22:10.674Z,36.90
2023-12-18T07:23:10.651Z,36.94
2023-12-18T07:24:10.734Z,36.93
2023-12-18T07:25:10.737Z,37.07
2023-12-18T07:26:10.690Z,37.07
2023-12-18T07:27:10.728Z,36.71
2023-12-18T07:28:10.735Z,36.80
2023-12-18T07:29:10.746Z,36.83
2023-12-18T07:30:10.873Z,36.80
2023-12-18T07:31:10.861Z,36.84
2023-12-18T07:32:10.814Z,36.81
2023-12-18T07:33:11.046Z,36.85
2023-12-18T07:34:10.924Z,36.84
2023-12-18T07:35:10.904Z,37.22
2023-12-18T07:36:10.871Z,37.11
2023-12-18T07:37:10.882Z,37.64
2023-12-18T07:38:10.910Z,36.88
2023-12-18T07:39:10.975Z,37.79
2023-12-18T07:40:11.386Z,37.90
2023-12-18T07:41:11.085Z,38.06
2023-12-18T07:42:11.222Z,38.48
2023-12-18T07:43:11.224Z,38.55
2023-12-18T07:44:11.320Z,38.50
2023-12-18T07:45:11.432Z,38.51
2023-12-18T07:46:11.358Z,38.79
2023-12-18T07:47:11.387Z,38.70
2023-12-18T07:48:11.569Z,38.74
2023-12-18T07:49:11.540Z,38.90
2023-12-18T07:50:11.925Z,39.14
2023-12-18T07:51:11.539Z,39.11
2023-12-18T07:52:11.529Z,39.15
2023-12-18T07:53:11.483Z,39.36
2023-12-18T07:54:11.524Z,39.36
2023-12-18T07:55:11.904Z,39.61
2023-12-18T07:56:11.520Z,39.83
2023-12-18T07:57:11.569Z,39.83
2023-12-18T07:58:11.595Z,39.75
2023-12-18T07:59:11.603Z,39.90
2023-12-18T08:00:11.793Z,39.95
2023-12-18T08:01:11.856Z,40.08
2023-12-18T08:02:11.821Z,40.21
2023-12-18T08:03:11.974Z,40.51
2023-12-18T08:04:12.995Z,40.58
2023-12-18T08:05:12.044Z,40.63
2023-12-18T08:06:12.132Z,40.62
2023-12-18T08:07:12.143Z,40.84
2023-12-18T08:08:12.199Z,40.96
2023-12-18T08:09:12.269Z,40.78
2023-12-18T08:10:12.389Z,40.94
2023-12-18T08:11:12.407Z,40.90
2023-12-18T08:12:12.479Z,41.15
2023-12-18T08:13:12.509Z,41.22
2023-12-18T08:14:12.532Z,41.13
2023-12-18T08:15:12.991Z,41.23
2023-12-18T08:16:12.650Z,41.19
2023-12-18T08:17:12.698Z,41.98
2023-12-18T08:18:12.967Z,42.41
2023-12-18T08:19:12.873Z,41.96
2023-12-18T08:20:12.942Z,42.17
2023-12-18T08:21:12.953Z,42.20
2023-12-18T08:22:12.898Z,42.01
2023-12-18T08:23:12.952Z,42.07
2023-12-18T08:24:13.033Z,42.18
2023-12-18T08:25:13.440Z,42.19
2023-12-18T08:26:13.076Z,42.38
2023-12-18T08:27:13.217Z,42.50
2023-12-18T08:28:13.213Z,42.48
2023-12-18T08:29:13.162Z,42.32
2023-12-18T08:30:13.522Z,42.41
2023-12-18T08:31:14.099Z,42.61
2023-12-18T08:32:13.272Z,43.01
2023-12-18T08:33:13.439Z,43.00
2023-12-18T08:34:13.398Z,43.05
2023-12-18T08:35:13.446Z,43.25
2023-12-18T08:36:13.501Z,42.83
2023-12-18T08:37:13.414Z,42.27
2023-12-18T08:38:13.454Z,41.72
2023-12-18T08:39:13.639Z,41.08
2023-12-18T08:40:13.964Z,40.77
2023-12-18T08:41:13.581Z,40.05
2023-12-18T08:42:13.604Z,38.35
2023-12-18T08:43:13.645Z,38.06
2023-12-18T08:44:13.652Z,38.00
2023-12-18T08:45:13.980Z,37.98
2023-12-18T08:46:13.802Z,37.92
2023-12-18T08:47:13.892Z,38.10
2023-12-18T08:48:14.083Z,37.65
2023-12-18T08:49:15.078Z,37.78
2023-12-18T08:50:14.936Z,37.56
2023-12-18T08:51:15.924Z,37.26
2023-12-18T08:52:13.983Z,37.32
2023-12-18T08:53:14.002Z,37.41
2023-12-18T08:54:14.053Z,37.46
2023-12-18T08:55:13.999Z,36.83
2023-12-18T08:56:14.004Z,37.05
2023-12-18T08:57:14.047Z,36.99
2023-12-18T08:58:14.007Z,37.14
2023-12-18T08:59:14.009Z,37.01
2023-12-18T09:00:14.049Z,37.13
2023-12-18T09:01:14.173Z,37.12
2023-12-18T09:02:14.006Z,37.22
2023-12-18T09:03:14.077Z,37.32
2023-12-18T09:04:14.073Z,37.33
2023-12-18T09:05:16.320Z,37.20
2023-12-18T09:06:14.080Z,37.14
2023-12-18T09:07:14.075Z,36.92
2023-12-18T09:08:14.077Z,36.73
2023-12-18T09:09:14.119Z,36.84
2023-12-18T09:10:14.442Z,36.97
2023-12-18T09:11:14.188Z,36.82
2023-12-18T09:12:14.315Z,36.56
2023-12-18T09:13:14.226Z,36.33
2023-12-18T09:14:14.254Z,35.97
2023-12-18T09:15:14.357Z,35.84
2023-12-18T09:16:14.381Z,35.73
2023-12-18T09:17:14.400Z,35.68
2023-12-18T09:18:14.601Z,35.78
2023-12-18T09:19:14.581Z,35.41
2023-12-18T09:20:14.562Z,35.59
2023-12-18T09:21:14.659Z,35.43
2023-12-18T09:22:14.641Z,35.64
2023-12-18T09:23:14.705Z,34.75
2023-12-18T09:24:14.757Z,35.51
2023-12-18T09:25:14.982Z,35.30
2023-12-18T09:26:14.876Z,34.95
2023-12-18T09:27:14.941Z,34.81
2023-12-18T09:28:14.968Z,34.69
2023-12-18T09:29:15.062Z,34.42
2023-12-18T09:30:16.083Z,34.37
2023-12-18T09:31:15.206Z,34.36
2023-12-18T09:32:15.227Z,34.25
2023-12-18T09:33:15.427Z,34.18
2023-12-18T09:34:15.483Z,34.15
2023-12-18T09:35:15.535Z,34.15
2023-12-18T09:36:15.454Z,34.28
2023-12-18T09:37:15.497Z,34.31
2023-12-18T09:38:15.580Z,34.25
2023-12-18T09:39:15.693Z,34.31
2023-12-18T09:40:15.927Z,34.14
2023-12-18T09:41:15.751Z,34.15
2023-12-18T09:42:18.679Z,33.53
2023-12-18T09:43:15.813Z,34.12
2023-12-18T09:44:15.843Z,34.35
2023-12-18T09:45:15.962Z,34.84
2023-12-18T09:46:15.810Z,34.77
2023-12-18T09:47:15.827Z,34.90
2023-12-18T09:48:17.402Z,35.20
2023-12-18T09:49:15.918Z,35.41
2023-12-18T09:50:15.929Z,35.45
2023-12-18T09:51:15.848Z,35.59
2023-12-18T09:52:15.815Z,35.73
2023-12-18T09:53:15.813Z,36.01
2023-12-18T09:54:17.242Z,36.09
2023-12-18T09:55:15.840Z,36.08
2023-12-18T09:56:15.846Z,36.22
2023-12-18T09:57:15.861Z,36.39
2023-12-18T09:58:15.873Z,36.65
2023-12-18T09:59:15.821Z,36.69
2023-12-18T10:00:17.640Z,36.67
2023-12-18T10:01:16.083Z,36.90
2023-12-18T10:02:15.847Z,36.98
2023-12-18T10:03:15.916Z,37.15
2023-12-18T10:04:15.854Z,37.23
2023-12-18T10:05:15.892Z,37.36
2023-12-18T10:06:18.452Z,37.41
2023-12-18T10:07:15.846Z,37.98
2023-12-18T10:08:15.841Z,37.89
2023-12-18T10:09:15.884Z,37.79
2023-12-18T10:10:15.848Z,37.89
2023-12-18T10:11:15.837Z,38.27
2023-12-18T10:12:15.862Z,38.86
2023-12-18T10:13:15.899Z,38.32
2023-12-18T10:14:15.840Z,38.49
2023-12-18T10:15:15.918Z,38.52
2023-12-18T10:16:15.923Z,38.65
2023-12-18T10:17:15.891Z,38.57
2023-12-18T10:18:17.674Z,38.66
2023-12-18T10:19:16.222Z,38.66
2023-12-18T10:20:16.152Z,38.87
2023-12-18T10:21:16.228Z,38.88
2023-12-18T10:22:16.289Z,39.00
2023-12-18T10:23:16.365Z,39.30
2023-12-18T10:24:17.754Z,39.25
2023-12-18T10:25:16.369Z,39.37
2023-12-18T10:26:16.384Z,39.50
2023-12-18T10:27:16.473Z,39.61
2023-12-18T10:28:16.462Z,39.68
2023-12-18T10:29:16.510Z,39.87
2023-12-18T10:30:18.809Z,39.82
2023-12-18T10:31:16.601Z,39.86
2023-12-18T10:32:16.541Z,40.01
2023-12-18T10:33:16.708Z,40.35
2023-12-18T10:34:16.652Z,40.32
2023-12-18T10:35:16.960Z,40.30
2023-12-18T10:36:17.341Z,40.18
2023-12-18T10:37:16.578Z,40.44
2023-12-18T10:38:17.444Z,40.59
2023-12-18T10:39:16.566Z,40.64
2023-12-18T10:40:16.975Z,40.60
2023-12-18T10:41:16.540Z,40.75
2023-12-18T10:42:16.567Z,40.79
2023-12-18T10:43:16.558Z,40.79
2023-12-18T10:44:16.546Z,40.99
2023-12-18T10:45:16.989Z,41.20
2023-12-18T10:46:16.563Z,41.22
2023-12-18T10:47:16.559Z,41.21
2023-12-18T10:48:16.595Z,41.47
2023-12-18T10:49:16.724Z,41.48
2023-12-18T10:50:16.949Z,41.68
2023-12-18T10:51:16.615Z,41.60
2023-12-18T10:52:16.556Z,41.77
2023-12-18T10:53:16.574Z,41.90
2023-12-18T10:54:16.563Z,41.71
2023-12-18T10:55:16.555Z,41.58
2023-12-18T10:56:16.557Z,41.52
2023-12-18T10:57:16.606Z,41.69
2023-12-18T10:58:16.567Z,41.71
2023-12-18T10:59:16.563Z,41.98
2023-12-18T11:00:17.080Z,41.92
2023-12-18T11:01:16.742Z,42.04
2023-12-18T11:02:16.738Z,41.83
2023-12-18T11:03:16.877Z,41.89
2023-12-18T11:04:17.094Z,41.86
2023-12-18T11:05:16.970Z,42.34
2023-12-18T11:06:18.395Z,42.31
2023-12-18T11:07:17.051Z,42.06
2023-12-18T11:08:17.102Z,41.95
2023-12-18T11:09:17.164Z,42.42
2023-12-18T11:10:17.475Z,42.21
2023-12-18T11:11:17.399Z,42.46
2023-12-18T11:12:17.361Z,42.89
2023-12-18T11:13:17.423Z,43.01
2023-12-18T11:14:17.499Z,42.94
2023-12-18T11:15:17.996Z,43.03
2023-12-18T11:16:17.614Z,42.85
2023-12-18T11:17:17.657Z,42.91
2023-12-18T11:18:17.851Z,43.23
2023-12-18T11:19:23.270Z,43.48
2023-12-18T11:20:18.876Z,43.42
2023-12-18T11:21:17.786Z,43.71
2023-12-18T11:22:17.756Z,43.61
2023-12-18T11:23:17.747Z,43.88
2023-12-18T11:24:17.797Z,44.88
2023-12-18T11:25:17.922Z,44.74
2023-12-18T11:26:17.753Z,44.34
2023-12-18T11:27:17.892Z,44.64
2023-12-18T11:28:17.874Z,44.52
2023-12-18T11:29:17.953Z,44.55
2023-12-18T11:30:18.071Z,43.16
2023-12-18T11:31:18.102Z,43.96
2023-12-18T11:32:18.108Z,43.73
2023-12-18T11:33:18.313Z,43.44
2023-12-18T11:34:18.379Z,43.11
2023-12-18T11:35:18.553Z,42.60
2023-12-18T11:36:18.473Z,42.38
2023-12-18T11:37:18.443Z,42.20
2023-12-18T11:38:18.503Z,41.97
2023-12-18T11:39:18.533Z,41.75
2023-12-18T11:40:18.974Z,41.72
2023-12-18T11:41:18.520Z,41.63
2023-12-18T11:42:18.564Z,41.53
2023-12-18T11:43:18.541Z,41.50
2023-12-18T11:44:18.552Z,41.52
2023-12-18T11:45:19.022Z,41.47
2023-12-18T11:46:19.142Z,41.40
2023-12-18T11:47:18.627Z,41.40
2023-12-18T11:48:19.080Z,41.39
2023-12-18T11:49:18.747Z,41.46
2023-12-18T11:50:18.798Z,41.46
2023-12-18T11:51:18.848Z,41.37
2023-12-18T11:52:18.783Z,41.49
2023-12-18T11:53:18.830Z,41.29
2023-12-18T11:54:18.944Z,41.32
2023-12-18T11:55:18.887Z,41.26
2023-12-18T11:56:18.938Z,41.21
2023-12-18T11:57:19.009Z,41.15
2023-12-18T11:58:19.045Z,41.08
2023-12-18T11:59:19.115Z,41.08
2023-12-18T12:00:19.220Z,41.06
2023-12-18T12:01:19.221Z,41.07
2023-12-18T12:02:19.287Z,41.03
2023-12-18T12:03:19.388Z,40.98
2023-12-18T12:04:19.478Z,40.99
2023-12-18T12:05:19.530Z,41.01
2023-12-18T12:06:19.529Z,41.05
2023-12-18T12:07:19.593Z,40.92
2023-12-18T12:08:19.730Z,40.87
2023-12-18T12:09:19.770Z,40.88
2023-12-18T12:10:20.008Z,40.87
2023-12-18T12:11:19.854Z,40.79
2023-12-18T12:12:19.963Z,40.80
2023-12-18T12:13:19.992Z,40.81
2023-12-18T12:14:20.053Z,40.76
2023-12-18T12:15:20.175Z,40.72
2023-12-18T12:16:20.179Z,40.66
2023-12-18T12:17:20.252Z,40.64
2023-12-18T12:18:20.432Z,40.64
2023-12-18T12:19:20.609Z,40.15
2023-12-18T12:20:20.988Z,39.25
2023-12-18T12:21:20.565Z,38.44
2023-12-18T12:22:20.568Z,37.73
2023-12-18T12:23:20.609Z,37.66
2023-12-18T12:24:22.287Z,37.63
2023-12-18T12:25:21.014Z,37.83
2023-12-18T12:26:20.697Z,37.67
2023-12-18T12:27:20.730Z,37.57
2023-12-18T12:28:20.723Z,37.44
2023-12-18T12:29:20.753Z,37.34
2023-12-18T12:30:21.069Z,37.28
2023-12-18T12:31:20.888Z,37.18
2023-12-18T12:32:20.995Z,37.00
2023-12-18T12:33:20.961Z,36.90
2023-12-18T12:34:20.851Z,36.82
2023-12-18T12:35:21.105Z,36.71
2023-12-18T12:36:20.916Z,36.63
2023-12-18T12:37:20.969Z,36.61
2023-12-18T12:38:21.021Z,36.53
2023-12-18T12:39:21.141Z,36.43
2023-12-18T12:40:21.539Z,36.39
2023-12-18T12:41:21.254Z,36.30
2023-12-18T12:42:21.261Z,36.29
2023-12-18T12:43:21.296Z,36.18
2023-12-18T12:44:21.331Z,36.15
2023-12-18T12:45:21.514Z,36.10
2023-12-18T12:46:26.548Z,36.05
2023-12-18T12:47:22.405Z,35.98
2023-12-18T12:48:21.462Z,35.94
2023-12-18T12:49:21.572Z,35.92
2023-12-18T12:50:21.523Z,35.85
2023-12-18T12:51:21.434Z,35.79
2023-12-18T12:52:21.398Z,35.70
2023-12-18T12:53:21.391Z,35.66